sensor_id;sensor_type;location;lat;lon;timestamp;temperature;humidity
75931;DHT22;64609;47.052;15.462;2024-02-23T00:02:15;13.90;51.10
75931;DHT22;64609;47.052;15.462;2024-02-23T00:04:41;13.90;51.20
75931;DHT22;64609;47.052;15.462;2024-02-23T00:07:07;13.90;51.30
75931;DHT22;64609;47.052;15.462;2024-02-23T00:09:33;13.80;51.40
75931;DHT22;64609;47.052;15.462;2024-02-23T00:11:59;13.80;51.40
75931;DHT22;64609;47.052;15.462;2024-02-23T00:14:25;13.80;51.50
75931;DHT22;64609;47.052;15.462;2024-02-23T00:16:50;13.80;51.80
75931;DHT22;64609;47.052;15.462;2024-02-23T00:19:16;13.80;51.90
75931;DHT22;64609;47.052;15.462;2024-02-23T00:21:44;13.80;51.90
75931;DHT22;64609;47.052;15.462;2024-02-23T00:24:15;13.90;52.00
75931;DHT22;64609;47.052;15.462;2024-02-23T00:26:42;13.90;52.10
75931;DHT22;64609;47.052;15.462;2024-02-23T00:29:07;13.80;52.30
75931;DHT22;64609;47.052;15.462;2024-02-23T00:31:33;13.80;52.40
75931;DHT22;64609;47.052;15.462;2024-02-23T00:33:59;13.80;52.50
75931;DHT22;64609;47.052;15.462;2024-02-23T00:36:24;13.80;52.70
75931;DHT22;64609;47.052;15.462;2024-02-23T00:38:50;13.80;52.80
75931;DHT22;64609;47.052;15.462;2024-02-23T00:41:16;13.80;53.00
75931;DHT22;64609;47.052;15.462;2024-02-23T00:43:41;13.80;52.90
75931;DHT22;64609;47.052;15.462;2024-02-23T00:46:08;13.80;53.00
75931;DHT22;64609;47.052;15.462;2024-02-23T00:48:34;13.80;53.10
75931;DHT22;64609;47.052;15.462;2024-02-23T00:51:02;13.80;53.20
75931;DHT22;64609;47.052;15.462;2024-02-23T00:53:30;13.80;53.40
75931;DHT22;64609;47.052;15.462;2024-02-23T00:55:55;13.80;53.40
75931;DHT22;64609;47.052;15.462;2024-02-23T00:58:21;13.80;53.50
75931;DHT22;64609;47.052;15.462;2024-02-23T01:00:47;13.80;53.70
75931;DHT22;64609;47.052;15.462;2024-02-23T01:03:12;13.70;53.80
75931;DHT22;64609;47.052;15.462;2024-02-23T01:05:38;13.70;54.00
75931;DHT22;64609;47.052;15.462;2024-02-23T01:08:05;13.70;54.10
75931;DHT22;64609;47.052;15.462;2024-02-23T01:10:31;13.70;54.20
75931;DHT22;64609;47.052;15.462;2024-02-23T01:12:56;13.70;54.40
75931;DHT22;64609;47.052;15.462;2024-02-23T01:15:22;13.70;54.60
75931;DHT22;64609;47.052;15.462;2024-02-23T01:17:48;13.60;54.90
75931;DHT22;64609;47.052;15.462;2024-02-23T01:20:14;13.60;55.20
75931;DHT22;64609;47.052;15.462;2024-02-23T01:22:39;13.60;55.40
75931;DHT22;64609;47.052;15.462;2024-02-23T01:25:05;13.60;56.00
75931;DHT22;64609;47.052;15.462;2024-02-23T01:27:31;13.50;56.20
75931;DHT22;64609;47.052;15.462;2024-02-23T01:29:57;13.50;57.70
75931;DHT22;64609;47.052;15.462;2024-02-23T01:32:22;13.50;57.00
75931;DHT22;64609;47.052;15.462;2024-02-23T01:34:48;13.50;57.30
75931;DHT22;64609;47.052;15.462;2024-02-23T01:37:14;13.50;58.20
75931;DHT22;64609;47.052;15.462;2024-02-23T01:39:40;13.50;58.80
75931;DHT22;64609;47.052;15.462;2024-02-23T01:42:05;13.40;59.10
75931;DHT22;64609;47.052;15.462;2024-02-23T01:44:31;13.40;59.70
75931;DHT22;64609;47.052;15.462;2024-02-23T01:46:57;13.30;60.00
75931;DHT22;64609;47.052;15.462;2024-02-23T01:49:22;13.30;60.50
75931;DHT22;64609;47.052;15.462;2024-02-23T01:51:56;13.20;60.30
75931;DHT22;64609;47.052;15.462;2024-02-23T01:54:22;13.10;60.80
75931;DHT22;64609;47.052;15.462;2024-02-23T01:56:48;13.10;61.00
75931;DHT22;64609;47.052;15.462;2024-02-23T01:59:14;13.00;60.50
75931;DHT22;64609;47.052;15.462;2024-02-23T02:01:43;13.00;60.90
75931;DHT22;64609;47.052;15.462;2024-02-23T02:04:08;13.00;61.00
75931;DHT22;64609;47.052;15.462;2024-02-23T02:06:34;12.80;61.40
75931;DHT22;64609;47.052;15.462;2024-02-23T02:09:00;12.80;62.10
75931;DHT22;64609;47.052;15.462;2024-02-23T02:11:26;12.80;62.50
75931;DHT22;64609;47.052;15.462;2024-02-23T02:13:51;12.80;62.80
75931;DHT22;64609;47.052;15.462;2024-02-23T02:16:17;12.80;62.80
75931;DHT22;64609;47.052;15.462;2024-02-23T02:18:42;12.80;62.80
75931;DHT22;64609;47.052;15.462;2024-02-23T02:21:10;12.90;63.90
75931;DHT22;64609;47.052;15.462;2024-02-23T02:23:35;12.80;63.00
75931;DHT22;64609;47.052;15.462;2024-02-23T02:26:02;12.90;63.30
75931;DHT22;64609;47.052;15.462;2024-02-23T02:28:28;12.90;63.40
75931;DHT22;64609;47.052;15.462;2024-02-23T02:30:54;12.90;63.30
75931;DHT22;64609;47.052;15.462;2024-02-23T02:33:20;12.90;63.40
75931;DHT22;64609;47.052;15.462;2024-02-23T02:35:46;12.90;63.60
75931;DHT22;64609;47.052;15.462;2024-02-23T02:38:12;12.90;63.90
75931;DHT22;64609;47.052;15.462;2024-02-23T02:40:38;12.90;64.00
75931;DHT22;64609;47.052;15.462;2024-02-23T02:43:04;12.80;63.90
75931;DHT22;64609;47.052;15.462;2024-02-23T02:45:29;12.80;64.10
75931;DHT22;64609;47.052;15.462;2024-02-23T02:47:55;12.80;64.40
75931;DHT22;64609;47.052;15.462;2024-02-23T02:50:21;12.70;64.30
75931;DHT22;64609;47.052;15.462;2024-02-23T02:52:47;12.70;64.60
75931;DHT22;64609;47.052;15.462;2024-02-23T02:55:13;12.80;64.90
75931;DHT22;64609;47.052;15.462;2024-02-23T02:57:39;12.70;64.80
75931;DHT22;64609;47.052;15.462;2024-02-23T03:00:05;12.70;64.90
75931;DHT22;64609;47.052;15.462;2024-02-23T03:02:37;12.70;65.00
75931;DHT22;64609;47.052;15.462;2024-02-23T03:05:03;12.70;64.80
75931;DHT22;64609;47.052;15.462;2024-02-23T03:07:29;12.70;64.80
75931;DHT22;64609;47.052;15.462;2024-02-23T03:09:54;12.60;64.80
75931;DHT22;64609;47.052;15.462;2024-02-23T03:12:20;12.70;64.70
75931;DHT22;64609;47.052;15.462;2024-02-23T03:14:46;12.70;64.60
75931;DHT22;64609;47.052;15.462;2024-02-23T03:17:12;12.70;64.70
75931;DHT22;64609;47.052;15.462;2024-02-23T03:19:38;12.60;65.00
75931;DHT22;64609;47.052;15.462;2024-02-23T03:22:04;12.60;65.00
75931;DHT22;64609;47.052;15.462;2024-02-23T03:24:30;12.50;64.80
75931;DHT22;64609;47.052;15.462;2024-02-23T03:26:55;12.50;64.90
75931;DHT22;64609;47.052;15.462;2024-02-23T03:29:23;12.50;64.60
75931;DHT22;64609;47.052;15.462;2024-02-23T03:31:55;12.50;63.70
75931;DHT22;64609;47.052;15.462;2024-02-23T03:34:21;12.50;63.90
75931;DHT22;64609;47.052;15.462;2024-02-23T03:36:46;12.50;62.80
75931;DHT22;64609;47.052;15.462;2024-02-23T03:39:13;12.50;63.50
75931;DHT22;64609;47.052;15.462;2024-02-23T03:41:39;12.50;63.80
75931;DHT22;64609;47.052;15.462;2024-02-23T03:44:04;12.60;63.80
75931;DHT22;64609;47.052;15.462;2024-02-23T03:46:30;12.50;63.90
75931;DHT22;64609;47.052;15.462;2024-02-23T03:48:56;12.50;64.20
75931;DHT22;64609;47.052;15.462;2024-02-23T03:51:22;12.50;64.30
75931;DHT22;64609;47.052;15.462;2024-02-23T03:53:47;12.50;64.50
75931;DHT22;64609;47.052;15.462;2024-02-23T03:56:13;12.50;64.70
75931;DHT22;64609;47.052;15.462;2024-02-23T03:58:38;12.50;64.20
75931;DHT22;64609;47.052;15.462;2024-02-23T04:01:04;12.50;64.50
75931;DHT22;64609;47.052;15.462;2024-02-23T04:03:30;12.50;64.30
75931;DHT22;64609;47.052;15.462;2024-02-23T04:05:55;12.50;65.60
75931;DHT22;64609;47.052;15.462;2024-02-23T04:08:21;12.50;64.50
75931;DHT22;64609;47.052;15.462;2024-02-23T04:10:47;12.50;64.30
75931;DHT22;64609;47.052;15.462;2024-02-23T04:13:12;12.50;64.50
75931;DHT22;64609;47.052;15.462;2024-02-23T04:15:43;12.50;64.60
75931;DHT22;64609;47.052;15.462;2024-02-23T04:18:08;12.40;65.10
75931;DHT22;64609;47.052;15.462;2024-02-23T04:20:34;12.40;64.90
75931;DHT22;64609;47.052;15.462;2024-02-23T04:23:00;12.40;65.20
75931;DHT22;64609;47.052;15.462;2024-02-23T04:25:25;12.30;65.00
75931;DHT22;64609;47.052;15.462;2024-02-23T04:27:51;12.30;65.20
75931;DHT22;64609;47.052;15.462;2024-02-23T04:30:17;12.30;65.00
75931;DHT22;64609;47.052;15.462;2024-02-23T04:32:42;12.30;65.00
75931;DHT22;64609;47.052;15.462;2024-02-23T04:35:09;12.30;65.30
75931;DHT22;64609;47.052;15.462;2024-02-23T04:37:35;12.40;65.40
75931;DHT22;64609;47.052;15.462;2024-02-23T04:40:01;12.30;65.50
75931;DHT22;64609;47.052;15.462;2024-02-23T04:42:26;12.30;65.50
75931;DHT22;64609;47.052;15.462;2024-02-23T04:44:53;12.30;65.80
75931;DHT22;64609;47.052;15.462;2024-02-23T04:47:20;12.30;65.70
75931;DHT22;64609;47.052;15.462;2024-02-23T04:49:46;12.30;65.70
75931;DHT22;64609;47.052;15.462;2024-02-23T04:52:12;12.30;65.60
75931;DHT22;64609;47.052;15.462;2024-02-23T04:54:37;12.30;65.60
75931;DHT22;64609;47.052;15.462;2024-02-23T04:57:03;12.30;65.50
75931;DHT22;64609;47.052;15.462;2024-02-23T04:59:29;12.30;65.60
75931;DHT22;64609;47.052;15.462;2024-02-23T05:01:57;12.30;66.00
75931;DHT22;64609;47.052;15.462;2024-02-23T05:04:23;12.30;65.90
75931;DHT22;64609;47.052;15.462;2024-02-23T05:06:48;12.30;65.90
75931;DHT22;64609;47.052;15.462;2024-02-23T05:09:14;12.30;66.00
75931;DHT22;64609;47.052;15.462;2024-02-23T05:11:39;12.20;66.10
75931;DHT22;64609;47.052;15.462;2024-02-23T05:14:05;12.20;66.30
75931;DHT22;64609;47.052;15.462;2024-02-23T05:16:31;12.20;66.30
75931;DHT22;64609;47.052;15.462;2024-02-23T05:18:57;12.20;66.20
75931;DHT22;64609;47.052;15.462;2024-02-23T05:21:23;12.20;66.30
75931;DHT22;64609;47.052;15.462;2024-02-23T05:23:48;12.20;66.30
75931;DHT22;64609;47.052;15.462;2024-02-23T05:26:14;12.20;66.10
75931;DHT22;64609;47.052;15.462;2024-02-23T05:28:39;12.20;66.10
75931;DHT22;64609;47.052;15.462;2024-02-23T05:31:05;12.10;66.20
75931;DHT22;64609;47.052;15.462;2024-02-23T05:33:31;12.10;66.20
75931;DHT22;64609;47.052;15.462;2024-02-23T05:35:56;12.10;66.10
75931;DHT22;64609;47.052;15.462;2024-02-23T05:38:22;12.10;66.10
75931;DHT22;64609;47.052;15.462;2024-02-23T05:40:47;12.00;66.30
75931;DHT22;64609;47.052;15.462;2024-02-23T05:43:14;12.00;66.20
75931;DHT22;64609;47.052;15.462;2024-02-23T05:45:40;12.00;66.10
75931;DHT22;64609;47.052;15.462;2024-02-23T05:48:06;12.00;66.40
75931;DHT22;64609;47.052;15.462;2024-02-23T05:50:32;12.00;66.30
75931;DHT22;64609;47.052;15.462;2024-02-23T05:52:58;12.00;66.40
75931;DHT22;64609;47.052;15.462;2024-02-23T05:55:24;11.90;66.40
75931;DHT22;64609;47.052;15.462;2024-02-23T05:57:49;11.90;66.10
75931;DHT22;64609;47.052;15.462;2024-02-23T06:00:16;11.90;65.80
75931;DHT22;64609;47.052;15.462;2024-02-23T06:02:44;11.90;65.90
75931;DHT22;64609;47.052;15.462;2024-02-23T06:05:12;11.90;65.90
75931;DHT22;64609;47.052;15.462;2024-02-23T06:07:37;11.80;65.80
75931;DHT22;64609;47.052;15.462;2024-02-23T06:10:04;11.80;65.80
75931;DHT22;64609;47.052;15.462;2024-02-23T06:12:30;11.80;65.90
75931;DHT22;64609;47.052;15.462;2024-02-23T06:14:56;11.80;65.80
75931;DHT22;64609;47.052;15.462;2024-02-23T06:17:22;11.80;65.80
75931;DHT22;64609;47.052;15.462;2024-02-23T06:19:48;11.80;65.80
75931;DHT22;64609;47.052;15.462;2024-02-23T06:22:14;11.70;65.90
75931;DHT22;64609;47.052;15.462;2024-02-23T06:24:42;11.70;66.90
75931;DHT22;64609;47.052;15.462;2024-02-23T06:27:08;11.70;66.00
75931;DHT22;64609;47.052;15.462;2024-02-23T06:29:34;11.70;66.10
75931;DHT22;64609;47.052;15.462;2024-02-23T06:31:59;11.70;66.20
75931;DHT22;64609;47.052;15.462;2024-02-23T06:34:27;11.70;66.00
75931;DHT22;64609;47.052;15.462;2024-02-23T06:36:52;11.70;66.10
75931;DHT22;64609;47.052;15.462;2024-02-23T06:39:18;11.60;66.20
75931;DHT22;64609;47.052;15.462;2024-02-23T06:41:45;11.60;66.10
75931;DHT22;64609;47.052;15.462;2024-02-23T06:44:11;11.70;65.90
75931;DHT22;64609;47.052;15.462;2024-02-23T06:46:36;11.70;65.70
75931;DHT22;64609;47.052;15.462;2024-02-23T06:49:02;11.80;66.70
75931;DHT22;64609;47.052;15.462;2024-02-23T06:51:31;11.80;65.70
75931;DHT22;64609;47.052;15.462;2024-02-23T06:53:56;11.80;65.90
75931;DHT22;64609;47.052;15.462;2024-02-23T06:56:22;11.80;65.90
75931;DHT22;64609;47.052;15.462;2024-02-23T06:58:47;11.80;66.30
75931;DHT22;64609;47.052;15.462;2024-02-23T07:01:13;11.80;66.30
75931;DHT22;64609;47.052;15.462;2024-02-23T07:03:39;11.80;66.30
75931;DHT22;64609;47.052;15.462;2024-02-23T07:06:06;11.80;66.40
75931;DHT22;64609;47.052;15.462;2024-02-23T07:08:32;11.80;66.30
75931;DHT22;64609;47.052;15.462;2024-02-23T07:10:58;11.90;66.10
75931;DHT22;64609;47.052;15.462;2024-02-23T07:13:23;11.90;66.00
75931;DHT22;64609;47.052;15.462;2024-02-23T07:15:49;11.90;66.40
75931;DHT22;64609;47.052;15.462;2024-02-23T07:18:14;11.90;66.60
75931;DHT22;64609;47.052;15.462;2024-02-23T07:20:41;11.90;66.60
75931;DHT22;64609;47.052;15.462;2024-02-23T07:23:07;11.90;66.70
75931;DHT22;64609;47.052;15.462;2024-02-23T07:25:33;12.00;66.90
75931;DHT22;64609;47.052;15.462;2024-02-23T07:27:58;12.00;67.00
75931;DHT22;64609;47.052;15.462;2024-02-23T07:30:24;12.10;67.00
75931;DHT22;64609;47.052;15.462;2024-02-23T07:32:50;12.10;67.00
75931;DHT22;64609;47.052;15.462;2024-02-23T07:35:16;12.10;67.00
75931;DHT22;64609;47.052;15.462;2024-02-23T07:37:41;12.10;67.10
75931;DHT22;64609;47.052;15.462;2024-02-23T07:40:07;12.20;67.20
75931;DHT22;64609;47.052;15.462;2024-02-23T07:42:33;12.20;67.30
75931;DHT22;64609;47.052;15.462;2024-02-23T07:45:02;12.20;67.50
75931;DHT22;64609;47.052;15.462;2024-02-23T07:47:30;12.20;67.30
75931;DHT22;64609;47.052;15.462;2024-02-23T07:49:55;12.30;67.30
75931;DHT22;64609;47.052;15.462;2024-02-23T07:52:21;12.30;67.00
75931;DHT22;64609;47.052;15.462;2024-02-23T07:54:49;12.40;66.70
75931;DHT22;64609;47.052;15.462;2024-02-23T07:57:17;12.50;66.40
75931;DHT22;64609;47.052;15.462;2024-02-23T07:59:43;12.50;66.20
75931;DHT22;64609;47.052;15.462;2024-02-23T08:02:09;12.50;66.70
75931;DHT22;64609;47.052;15.462;2024-02-23T08:04:34;12.50;66.60
75931;DHT22;64609;47.052;15.462;2024-02-23T08:07:00;12.50;66.70
75931;DHT22;64609;47.052;15.462;2024-02-23T08:09:25;12.50;66.90
75931;DHT22;64609;47.052;15.462;2024-02-23T08:11:51;12.60;67.00
75931;DHT22;64609;47.052;15.462;2024-02-23T08:14:17;12.60;67.10
75931;DHT22;64609;47.052;15.462;2024-02-23T08:16:42;12.60;66.90
75931;DHT22;64609;47.052;15.462;2024-02-23T08:19:08;12.70;66.70
75931;DHT22;64609;47.052;15.462;2024-02-23T08:21:34;12.70;66.80
75931;DHT22;64609;47.052;15.462;2024-02-23T08:23:59;12.70;66.60
75931;DHT22;64609;47.052;15.462;2024-02-23T08:26:25;12.80;66.30
75931;DHT22;64609;47.052;15.462;2024-02-23T08:28:50;12.80;67.10
75931;DHT22;64609;47.052;15.462;2024-02-23T08:31:16;12.80;66.00
75931;DHT22;64609;47.052;15.462;2024-02-23T08:33:42;12.80;65.80
75931;DHT22;64609;47.052;15.462;2024-02-23T08:36:08;12.80;65.90
75931;DHT22;64609;47.052;15.462;2024-02-23T08:38:33;12.90;65.90
75931;DHT22;64609;47.052;15.462;2024-02-23T08:40:59;12.90;65.50
75931;DHT22;64609;47.052;15.462;2024-02-23T08:43:25;12.90;65.40
75931;DHT22;64609;47.052;15.462;2024-02-23T08:45:50;12.90;65.20
75931;DHT22;64609;47.052;15.462;2024-02-23T08:48:17;13.00;64.70
75931;DHT22;64609;47.052;15.462;2024-02-23T08:50:43;13.00;64.20
75931;DHT22;64609;47.052;15.462;2024-02-23T08:53:09;13.00;64.10
75931;DHT22;64609;47.052;15.462;2024-02-23T08:55:34;13.10;63.30
75931;DHT22;64609;47.052;15.462;2024-02-23T08:58:00;13.10;62.40
75931;DHT22;64609;47.052;15.462;2024-02-23T09:00:25;13.20;62.20
75931;DHT22;64609;47.052;15.462;2024-02-23T09:02:51;13.20;62.00
75931;DHT22;64609;47.052;15.462;2024-02-23T09:05:17;13.20;61.70
75931;DHT22;64609;47.052;15.462;2024-02-23T09:07:42;13.30;61.70
75931;DHT22;64609;47.052;15.462;2024-02-23T09:10:09;13.30;61.80
75931;DHT22;64609;47.052;15.462;2024-02-23T09:12:34;13.30;61.70
75931;DHT22;64609;47.052;15.462;2024-02-23T09:15:00;13.30;61.70
75931;DHT22;64609;47.052;15.462;2024-02-23T09:17:26;13.30;61.70
75931;DHT22;64609;47.052;15.462;2024-02-23T09:19:51;13.40;61.70
75931;DHT22;64609;47.052;15.462;2024-02-23T09:22:17;13.40;61.80
75931;DHT22;64609;47.052;15.462;2024-02-23T09:24:43;13.40;61.70
75931;DHT22;64609;47.052;15.462;2024-02-23T09:27:08;13.50;61.50
75931;DHT22;64609;47.052;15.462;2024-02-23T09:29:34;13.50;61.40
75931;DHT22;64609;47.052;15.462;2024-02-23T09:32:00;13.50;61.40
75931;DHT22;64609;47.052;15.462;2024-02-23T09:34:26;13.50;61.50
75931;DHT22;64609;47.052;15.462;2024-02-23T09:36:52;13.50;61.80
75931;DHT22;64609;47.052;15.462;2024-02-23T09:39:18;13.50;61.50
75931;DHT22;64609;47.052;15.462;2024-02-23T09:41:43;13.50;61.80
75931;DHT22;64609;47.052;15.462;2024-02-23T09:44:09;13.50;61.60
75931;DHT22;64609;47.052;15.462;2024-02-23T09:46:40;13.50;61.40
75931;DHT22;64609;47.052;15.462;2024-02-23T09:49:07;13.50;61.30
75931;DHT22;64609;47.052;15.462;2024-02-23T09:51:34;13.50;61.20
75931;DHT22;64609;47.052;15.462;2024-02-23T09:54:01;13.60;61.30
75931;DHT22;64609;47.052;15.462;2024-02-23T09:56:28;13.60;61.30
75931;DHT22;64609;47.052;15.462;2024-02-23T09:58:57;13.60;61.00
75931;DHT22;64609;47.052;15.462;2024-02-23T10:01:29;13.60;60.70
75931;DHT22;64609;47.052;15.462;2024-02-23T10:04:00;13.60;60.70
75931;DHT22;64609;47.052;15.462;2024-02-23T10:06:26;13.60;60.50
75931;DHT22;64609;47.052;15.462;2024-02-23T10:08:53;13.60;60.60
75931;DHT22;64609;47.052;15.462;2024-02-23T10:11:21;13.50;60.80
75931;DHT22;64609;47.052;15.462;2024-02-23T10:13:50;13.50;61.00
75931;DHT22;64609;47.052;15.462;2024-02-23T10:16:21;13.50;61.00
75931;DHT22;64609;47.052;15.462;2024-02-23T10:18:47;13.50;61.00
75931;DHT22;64609;47.052;15.462;2024-02-23T10:21:16;13.50;62.00
75931;DHT22;64609;47.052;15.462;2024-02-23T10:23:44;13.50;61.20
75931;DHT22;64609;47.052;15.462;2024-02-23T10:26:10;13.50;61.20
75931;DHT22;64609;47.052;15.462;2024-02-23T10:28:37;13.50;61.30
75931;DHT22;64609;47.052;15.462;2024-02-23T10:31:05;13.50;61.40
75931;DHT22;64609;47.052;15.462;2024-02-23T10:33:31;13.50;61.50
75931;DHT22;64609;47.052;15.462;2024-02-23T10:35:57;13.50;61.40
75931;DHT22;64609;47.052;15.462;2024-02-23T10:38:23;13.50;61.40
75931;DHT22;64609;47.052;15.462;2024-02-23T10:40:50;13.50;61.50
75931;DHT22;64609;47.052;15.462;2024-02-23T10:43:20;13.50;61.60
75931;DHT22;64609;47.052;15.462;2024-02-23T10:45:51;13.50;61.60
75931;DHT22;64609;47.052;15.462;2024-02-23T10:48:17;13.50;61.70
75931;DHT22;64609;47.052;15.462;2024-02-23T10:50:43;13.60;61.80
75931;DHT22;64609;47.052;15.462;2024-02-23T10:53:10;13.50;61.80
75931;DHT22;64609;47.052;15.462;2024-02-23T10:55:37;13.50;61.80
75931;DHT22;64609;47.052;15.462;2024-02-23T10:58:09;13.50;61.80
75931;DHT22;64609;47.052;15.462;2024-02-23T11:00:37;13.50;61.80
75931;DHT22;64609;47.052;15.462;2024-02-23T11:03:03;13.50;61.80
75931;DHT22;64609;47.052;15.462;2024-02-23T11:05:30;13.50;61.80
75931;DHT22;64609;47.052;15.462;2024-02-23T11:07:57;13.50;61.80
75931;DHT22;64609;47.052;15.462;2024-02-23T11:10:23;13.50;61.80
75931;DHT22;64609;47.052;15.462;2024-02-23T11:12:59;13.50;62.00
75931;DHT22;64609;47.052;15.462;2024-02-23T11:15:29;13.50;62.20
75931;DHT22;64609;47.052;15.462;2024-02-23T11:17:55;13.40;62.20
75931;DHT22;64609;47.052;15.462;2024-02-23T11:20:21;13.50;62.40
75931;DHT22;64609;47.052;15.462;2024-02-23T11:22:52;13.50;62.40
75931;DHT22;64609;47.052;15.462;2024-02-23T11:25:26;13.50;62.60
75931;DHT22;64609;47.052;15.462;2024-02-23T11:27:52;13.50;62.80
75931;DHT22;64609;47.052;15.462;2024-02-23T11:30:18;13.50;63.10
75931;DHT22;64609;47.052;15.462;2024-02-23T11:32:45;13.60;63.00
75931;DHT22;64609;47.052;15.462;2024-02-23T11:35:13;13.70;62.70
75931;DHT22;64609;47.052;15.462;2024-02-23T11:40:12;13.80;61.70
75931;DHT22;64609;47.052;15.462;2024-02-23T11:42:39;13.80;61.60
75931;DHT22;64609;47.052;15.462;2024-02-23T11:45:05;13.80;61.30
75931;DHT22;64609;47.052;15.462;2024-02-23T11:47:31;13.70;61.10
75931;DHT22;64609;47.052;15.462;2024-02-23T11:49:56;13.80;61.00
75931;DHT22;64609;47.052;15.462;2024-02-23T11:52:22;13.80;60.80
75931;DHT22;64609;47.052;15.462;2024-02-23T11:54:48;13.80;60.90
75931;DHT22;64609;47.052;15.462;2024-02-23T11:57:13;13.80;60.90
75931;DHT22;64609;47.052;15.462;2024-02-23T11:59:40;13.80;60.20
75931;DHT22;64609;47.052;15.462;2024-02-23T12:02:07;13.80;60.00
75931;DHT22;64609;47.052;15.462;2024-02-23T12:04:33;13.80;59.90
75931;DHT22;64609;47.052;15.462;2024-02-23T12:06:59;13.80;59.40
75931;DHT22;64609;47.052;15.462;2024-02-23T12:09:26;13.80;59.80
75931;DHT22;64609;47.052;15.462;2024-02-23T12:11:52;13.80;59.50
75931;DHT22;64609;47.052;15.462;2024-02-23T12:14:17;13.80;58.30
75931;DHT22;64609;47.052;15.462;2024-02-23T12:16:43;13.70;59.00
75931;DHT22;64609;47.052;15.462;2024-02-23T12:19:10;13.70;59.30
75931;DHT22;64609;47.052;15.462;2024-02-23T12:21:36;13.60;58.90
75931;DHT22;64609;47.052;15.462;2024-02-23T12:24:04;13.60;59.30
75931;DHT22;64609;47.052;15.462;2024-02-23T12:26:32;13.60;59.50
75931;DHT22;64609;47.052;15.462;2024-02-23T12:29:05;13.60;59.40
75931;DHT22;64609;47.052;15.462;2024-02-23T12:31:32;13.60;59.40
75931;DHT22;64609;47.052;15.462;2024-02-23T12:33:58;13.60;59.40
75931;DHT22;64609;47.052;15.462;2024-02-23T12:36:23;13.60;59.10
75931;DHT22;64609;47.052;15.462;2024-02-23T12:38:49;13.60;59.20
75931;DHT22;64609;47.052;15.462;2024-02-23T12:41:15;13.60;59.50
75931;DHT22;64609;47.052;15.462;2024-02-23T12:43:40;13.50;58.90
75931;DHT22;64609;47.052;15.462;2024-02-23T12:46:06;13.60;59.40
75931;DHT22;64609;47.052;15.462;2024-02-23T12:48:34;13.60;58.90
75931;DHT22;64609;47.052;15.462;2024-02-23T12:51:00;13.60;58.70
75931;DHT22;64609;47.052;15.462;2024-02-23T12:53:35;13.50;58.70
75931;DHT22;64609;47.052;15.462;2024-02-23T12:56:07;13.50;58.80
75931;DHT22;64609;47.052;15.462;2024-02-23T12:58:35;13.40;59.00
75931;DHT22;64609;47.052;15.462;2024-02-23T13:01:01;13.40;59.10
75931;DHT22;64609;47.052;15.462;2024-02-23T13:03:27;13.40;59.30
75931;DHT22;64609;47.052;15.462;2024-02-23T13:05:55;13.40;59.70
75931;DHT22;64609;47.052;15.462;2024-02-23T13:08:21;13.50;59.20
75931;DHT22;64609;47.052;15.462;2024-02-23T13:10:48;13.50;58.60
75931;DHT22;64609;47.052;15.462;2024-02-23T13:13:14;13.50;58.70
75931;DHT22;64609;47.052;15.462;2024-02-23T13:15:44;13.50;59.10
75931;DHT22;64609;47.052;15.462;2024-02-23T13:18:09;13.60;59.50
75931;DHT22;64609;47.052;15.462;2024-02-23T13:20:36;13.60;59.80
75931;DHT22;64609;47.052;15.462;2024-02-23T13:23:02;13.60;59.70
75931;DHT22;64609;47.052;15.462;2024-02-23T13:25:28;13.60;59.70
75931;DHT22;64609;47.052;15.462;2024-02-23T13:27:54;13.60;59.70
75931;DHT22;64609;47.052;15.462;2024-02-23T13:30:19;13.50;60.00
75931;DHT22;64609;47.052;15.462;2024-02-23T13:32:45;13.50;59.80
75931;DHT22;64609;47.052;15.462;2024-02-23T13:35:11;13.50;60.10
75931;DHT22;64609;47.052;15.462;2024-02-23T13:37:37;13.50;60.10
75931;DHT22;64609;47.052;15.462;2024-02-23T13:40:02;13.50;60.10
75931;DHT22;64609;47.052;15.462;2024-02-23T13:42:31;13.60;60.10
75931;DHT22;64609;47.052;15.462;2024-02-23T13:44:56;13.60;60.00
75931;DHT22;64609;47.052;15.462;2024-02-23T13:47:22;13.70;60.10
75931;DHT22;64609;47.052;15.462;2024-02-23T13:49:48;13.70;60.00
75931;DHT22;64609;47.052;15.462;2024-02-23T13:52:13;13.70;59.90
75931;DHT22;64609;47.052;15.462;2024-02-23T13:54:39;13.80;59.90
75931;DHT22;64609;47.052;15.462;2024-02-23T13:57:04;13.80;59.80
75931;DHT22;64609;47.052;15.462;2024-02-23T13:59:30;13.80;59.70
75931;DHT22;64609;47.052;15.462;2024-02-23T14:01:56;13.90;59.80
75931;DHT22;64609;47.052;15.462;2024-02-23T14:04:22;13.90;60.00
75931;DHT22;64609;47.052;15.462;2024-02-23T14:06:47;13.90;59.70
75931;DHT22;64609;47.052;15.462;2024-02-23T14:09:13;13.90;59.50
75931;DHT22;64609;47.052;15.462;2024-02-23T14:11:39;13.90;60.40
75931;DHT22;64609;47.052;15.462;2024-02-23T14:14:05;13.90;59.50
75931;DHT22;64609;47.052;15.462;2024-02-23T14:16:31;13.90;59.70
75931;DHT22;64609;47.052;15.462;2024-02-23T14:18:57;13.90;59.50
75931;DHT22;64609;47.052;15.462;2024-02-23T14:21:23;13.90;59.40
75931;DHT22;64609;47.052;15.462;2024-02-23T14:23:50;13.90;59.60
75931;DHT22;64609;47.052;15.462;2024-02-23T14:26:16;14.00;59.80
75931;DHT22;64609;47.052;15.462;2024-02-23T14:28:42;14.00;59.70
75931;DHT22;64609;47.052;15.462;2024-02-23T14:31:07;14.00;59.60
75931;DHT22;64609;47.052;15.462;2024-02-23T14:33:33;14.00;59.60
75931;DHT22;64609;47.052;15.462;2024-02-23T14:35:59;13.90;59.70
75931;DHT22;64609;47.052;15.462;2024-02-23T14:38:24;13.90;59.90
75931;DHT22;64609;47.052;15.462;2024-02-23T14:40:50;13.90;59.90
75931;DHT22;64609;47.052;15.462;2024-02-23T14:43:16;14.00;59.70
75931;DHT22;64609;47.052;15.462;2024-02-23T14:45:42;13.90;59.50
75931;DHT22;64609;47.052;15.462;2024-02-23T14:48:07;13.90;59.80
75931;DHT22;64609;47.052;15.462;2024-02-23T14:50:33;13.90;60.00
75931;DHT22;64609;47.052;15.462;2024-02-23T14:52:59;13.90;59.90
75931;DHT22;64609;47.052;15.462;2024-02-23T14:55:25;13.90;59.90
75931;DHT22;64609;47.052;15.462;2024-02-23T14:57:50;13.90;60.10
75931;DHT22;64609;47.052;15.462;2024-02-23T15:00:16;13.90;60.20
75931;DHT22;64609;47.052;15.462;2024-02-23T15:02:42;13.90;60.30
75931;DHT22;64609;47.052;15.462;2024-02-23T15:05:08;13.90;60.30
75931;DHT22;64609;47.052;15.462;2024-02-23T15:07:34;13.90;60.00
75931;DHT22;64609;47.052;15.462;2024-02-23T15:10:01;13.90;59.70
75931;DHT22;64609;47.052;15.462;2024-02-23T15:12:31;13.90;59.50